Weather reports worldwide

Advertisment
Bealach, United Kingdom (3039): temperature & dewpoint: 15.10.2017 06:00:00 - 21.10.2017 06:00:00 (BST)Bealach, United Kingdom (3039): wind speed & gusts: 15.10.2017 06:00:00 - 21.10.2017 06:00:00 (BST)Bealach, United Kingdom (3039): wind direction: 15.10.2017 06:00:00 - 21.10.2017 06:00:00 (BST)
Date & Time tt [°C] td [°C] ff [km/h] ff [kn] fx [km/h] fx [kn] dd
21.10.2017 06:00:00 - - - - - - -
21.10.2017 05:00:00 5,5 4,9 35 19 78 42 ESE
21.10.2017 04:00:00 5,7 4,6 52 28 81 44 E
21.10.2017 03:00:00 5,0 4,5 37 20 78 42 ESE
21.10.2017 02:00:00 5,2 4,3 42 23 74 40 ESE
21.10.2017 01:00:00 5,6 4,1 26 14 68 37 ESE
21.10.2017 00:00:00 7,2 5,0 52 28 72 39 E
20.10.2017 23:00:00 8,1 6,4 42 23 67 36 E
20.10.2017 22:00:00 8,2 6,6 37 20 61 33 E
20.10.2017 21:00:00 8,3 7,0 37 20 63 34 E
20.10.2017 20:00:00 8,0 7,3 29 16 52 28 E
20.10.2017 19:00:00 8,0 7,0 22 12 55 30 ESE
20.10.2017 18:00:00 7,9 7,0 31 17 54 29 E
20.10.2017 17:00:00 7,5 7,2 31 17 52 28 E
20.10.2017 16:00:00 6,9 6,6 26 14 - - E
20.10.2017 15:00:00 6,7 6,2 16 9 - - ESE
20.10.2017 14:00:00 6,6 5,4 8 4 - - ESE
20.10.2017 13:00:00 6,3 4,9 9 5 - - E
20.10.2017 12:00:00 5,9 5,9 16 9 - - N
20.10.2017 11:00:00 6,0 6,0 29 16 - - NNW
20.10.2017 10:00:00 6,2 6,2 31 17 - - NNW
20.10.2017 09:00:00 6,7 6,7 22 12 - - NW
20.10.2017 08:00:00 7,0 7,0 15 8 - - WSW
20.10.2017 07:00:00 7,0 7,0 15 8 - - W
20.10.2017 06:00:00 7,0 7,0 15 8 - - W
20.10.2017 05:00:00 7,0 7,0 15 8 - - W
20.10.2017 04:00:00 7,1 7,1 9 5 - - WNW
20.10.2017 03:00:00 7,1 7,1 5 3 - - WNW
20.10.2017 02:00:00 7,3 7,3 4 2 - - SSE
20.10.2017 01:00:00 7,3 7,3 8 4 - - ESE
20.10.2017 00:00:00 7,8 7,5 16 9 - - ESE
19.10.2017 23:00:00 8,4 7,2 26 14 48 26 E
19.10.2017 22:00:00 8,5 7,3 37 20 55 30 E
19.10.2017 21:00:00 8,5 7,7 39 21 55 30 E
19.10.2017 20:00:00 8,3 8,0 22 12 48 26 E
19.10.2017 19:00:00 8,5 7,8 15 8 50 27 E
19.10.2017 18:00:00 8,6 7,5 28 15 63 34 E
19.10.2017 17:00:00 8,8 7,4 11 6 - - WNW
19.10.2017 16:00:00 8,7 7,4 29 16 55 30 ESE
19.10.2017 15:00:00 8,4 7,2 15 8 - - ENE
19.10.2017 14:00:00 8,8 6,5 11 6 - - WNW
19.10.2017 13:00:00 8,6 7,7 15 8 - - NNE
19.10.2017 12:00:00 8,1 7,7 15 8 - - N
19.10.2017 11:00:00 7,8 7,8 13 7 - - SSE
19.10.2017 10:00:00 7,5 7,5 16 9 46 25 E
19.10.2017 09:00:00 7,3 7,3 15 8 50 27 E
19.10.2017 08:00:00 7,1 7,1 21 11 65 35 ESE
19.10.2017 07:00:00 6,5 6,5 13 7 67 36 ESE
19.10.2017 06:00:00 6,2 6,2 44 24 67 36 E
19.10.2017 05:00:00 5,9 5,9 31 17 61 33 E
19.10.2017 04:00:00 5,6 5,6 34 18 59 32 ESE
19.10.2017 03:00:00 5,4 5,4 42 23 65 35 E
19.10.2017 02:00:00 5,4 5,4 35 19 59 32 E
19.10.2017 01:00:00 5,4 5,4 44 24 76 41 E
19.10.2017 00:00:00 4,6 4,6 37 20 67 36 ESE
18.10.2017 23:00:00 4,4 4,4 39 21 59 32 ESE
18.10.2017 22:00:00 3,9 3,9 28 15 55 30 ESE
18.10.2017 21:00:00 4,0 4,0 24 13 48 26 ESE
18.10.2017 20:00:00 4,2 4,2 29 16 55 30 ESE
18.10.2017 19:00:00 4,1 4,1 22 12 50 27 ESE
18.10.2017 18:00:00 4,3 4,3 18 10 - - ESE
18.10.2017 17:00:00 4,2 4,2 22 12 46 25 ESE
18.10.2017 16:00:00 4,3 4,3 28 15 63 34 ESE
18.10.2017 15:00:00 4,2 4,2 22 12 54 29 E
18.10.2017 14:00:00 4,2 4,2 21 11 - - E
18.10.2017 13:00:00 4,2 4,2 15 8 - - E
18.10.2017 12:00:00 3,9 3,9 22 12 - - E
18.10.2017 11:00:00 3,5 3,5 24 13 - - ESE
18.10.2017 10:00:00 3,2 3,2 22 12 50 27 ESE
18.10.2017 09:00:00 3,1 3,1 26 14 46 25 ESE
18.10.2017 08:00:00 2,9 2,9 24 13 46 25 ESE
18.10.2017 07:00:00 2,7 2,7 26 14 - - ESE
18.10.2017 06:00:00 2,5 2,5 24 13 - - ESE
18.10.2017 05:00:00 2,7 2,7 21 11 - - ESE
18.10.2017 04:00:00 2,4 2,4 22 12 - - ESE
18.10.2017 03:00:00 2,5 2,5 26 14 - - ESE
18.10.2017 02:00:00 2,5 2,5 21 11 48 26 ESE
18.10.2017 01:00:00 2,6 2,6 22 12 - - ESE
18.10.2017 00:00:00 2,9 2,9 22 12 - - E
17.10.2017 23:00:00 3,3 3,3 22 12 - - E
17.10.2017 22:00:00 3,5 3,5 18 10 - - E
17.10.2017 21:00:00 3,9 3,9 18 10 - - E
17.10.2017 20:00:00 4,1 4,1 9 5 - - ENE
17.10.2017 19:00:00 4,1 4,1 13 7 - - N
17.10.2017 18:00:00 4,5 4,5 16 9 - - N
17.10.2017 17:00:00 4,6 4,6 21 11 - - N
17.10.2017 16:00:00 4,6 4,6 28 15 48 26 N
17.10.2017 15:00:00 4,7 4,7 39 21 68 37 NNE
17.10.2017 14:00:00 4,9 4,9 48 26 76 41 NNE
17.10.2017 13:00:00 5,1 5,1 50 27 83 45 N
17.10.2017 12:00:00 5,3 5,3 41 22 81 44 N
17.10.2017 11:00:00 5,8 5,8 61 33 - - N
17.10.2017 10:00:00 6,4 6,4 68 37 78 42 NNW
17.10.2017 09:00:00 7,2 7,2 50 27 59 32 NNW
17.10.2017 08:00:00 7,5 7,5 48 26 55 30 WNW
17.10.2017 07:00:00 7,6 7,6 39 21 52 28 W
17.10.2017 06:00:00 7,5 7,5 35 19 57 31 WNW
17.10.2017 05:00:00 7,4 7,4 41 22 52 28 WNW
17.10.2017 04:00:00 7,2 7,2 18 10 - - NNW
17.10.2017 03:00:00 7,1 7,1 22 12 - - E
17.10.2017 02:00:00 7,0 7,0 18 10 - - ESE
17.10.2017 01:00:00 7,0 7,0 24 13 - - ESE
17.10.2017 00:00:00 7,1 7,1 29 16 59 32 ESE
16.10.2017 23:00:00 7,0 7,0 37 20 70 38 ESE
16.10.2017 22:00:00 7,1 7,1 39 21 72 39 E
16.10.2017 21:00:00 7,2 7,2 29 16 87 47 E
16.10.2017 20:00:00 7,4 7,4 41 22 85 46 E
16.10.2017 19:00:00 7,0 7,0 35 19 100 54 E
16.10.2017 18:00:00 7,0 7,0 55 30 104 56 E
16.10.2017 17:00:00 6,1 6,1 55 30 104 56 E
16.10.2017 16:00:00 5,7 5,7 41 22 96 52 E
16.10.2017 15:00:00 5,6 5,6 54 29 104 56 E
16.10.2017 14:00:00 4,5 4,5 52 28 87 47 E
16.10.2017 13:00:00 4,2 4,2 44 24 72 39 E
16.10.2017 12:00:00 4,2 4,2 35 19 63 34 E
16.10.2017 11:00:00 3,1 3,1 41 22 55 30 E
16.10.2017 10:00:00 3,0 3,0 22 12 - - E
16.10.2017 09:00:00 3,5 3,5 8 4 - - SE
16.10.2017 08:00:00 3,7 3,7 15 8 - - ESE
16.10.2017 07:00:00 4,4 4,4 5 3 - - ESE
16.10.2017 06:00:00 4,4 4,4 9 5 - - SE
16.10.2017 05:00:00 4,6 4,6 4 2 - - ESE
16.10.2017 04:00:00 4,4 4,4 2 1 - - SE
16.10.2017 03:00:00 4,1 4,1 5 3 - - WSW
16.10.2017 02:00:00 4,1 4,1 8 4 - - W
16.10.2017 01:00:00 4,1 4,1 5 3 - - SSW
16.10.2017 00:00:00 3,8 3,8 13 7 - - WSW
15.10.2017 23:00:00 3,6 3,6 15 8 - - WSW
15.10.2017 22:00:00 4,1 4,1 9 5 - - W
15.10.2017 21:00:00 4,0 4,0 13 7 - - WNW
15.10.2017 20:00:00 3,9 3,9 16 9 - - WNW
15.10.2017 19:00:00 3,8 3,8 29 16 - - WNW
15.10.2017 18:00:00 4,5 4,5 29 16 50 27 WNW
15.10.2017 17:00:00 4,5 4,5 44 24 59 32 WNW
15.10.2017 16:00:00 4,8 4,8 42 23 70 38 WNW
15.10.2017 15:00:00 5,0 5,0 59 32 78 42 WNW
15.10.2017 14:00:00 7,2 7,2 65 35 120 65 W
15.10.2017 13:00:00 9,6 9,6 109 59 133 72 SSW
15.10.2017 12:00:00 10,1 10,1 98 53 126 68 SSW
15.10.2017 11:00:00 10,2 10,2 80 43 124 67 SSW
15.10.2017 10:00:00 10,0 10,0 67 36 106 57 S
15.10.2017 09:00:00 9,8 9,8 80 43 106 57 S
15.10.2017 08:00:00 9,6 9,6 68 37 124 67 S
15.10.2017 07:00:00 9,5 9,5 76 41 113 61 S
15.10.2017 06:00:00 9,7 9,7 70 38 119 64 S

tt = temperature
td = dewpoint
ff = wind speed
fx = gusts
dd = wind direction

Next stations